createdAt,value
2022-09-22T00:00:06.903Z,13.08
2022-09-22T00:02:36.865Z,12.98
2022-09-22T00:05:06.332Z,12.72
2022-09-22T00:07:35.294Z,12.92
2022-09-22T00:10:04.541Z,12.71
2022-09-22T00:12:33.438Z,12.74
2022-09-22T00:15:03.608Z,13.15
2022-09-22T00:17:32.703Z,13.37
2022-09-22T00:20:01.863Z,13.23
2022-09-22T00:22:31.108Z,13.20
2022-09-22T00:25:00.404Z,13.20
2022-09-22T00:27:29.362Z,13.27
2022-09-22T00:29:58.341Z,13.07
2022-09-22T00:32:27.989Z,13.14
2022-09-22T00:34:56.990Z,13.00
2022-09-22T00:37:26.028Z,13.06
2022-09-22T00:39:55.018Z,13.20
2022-09-22T00:42:26.117Z,13.06
2022-09-22T00:44:55.472Z,13.06
2022-09-22T00:47:36.512Z,13.03
2022-09-22T00:50:16.975Z,13.15
2022-09-22T00:52:51.692Z,13.08
2022-09-22T00:55:26.663Z,12.99
2022-09-22T00:57:57.449Z,12.94
2022-09-22T01:00:26.515Z,12.61
2022-09-22T01:02:58.133Z,12.95
2022-09-22T01:05:28.485Z,12.92
2022-09-22T01:07:57.976Z,13.00
2022-09-22T01:10:27.502Z,12.79
2022-09-22T01:13:28.031Z,12.75
2022-09-22T01:16:16.475Z,12.72
2022-09-22T01:18:54.562Z,12.83
2022-09-22T01:21:33.881Z,12.60
2022-09-22T01:24:14.815Z,12.60
2022-09-22T01:26:55.549Z,12.62
2022-09-22T01:29:51.511Z,12.64
2022-09-22T01:32:25.880Z,12.68
2022-09-22T01:35:09.788Z,12.54
2022-09-22T01:37:56.553Z,12.54
2022-09-22T01:40:34.694Z,12.33
2022-09-22T01:43:09.164Z,12.33
2022-09-22T01:45:41.023Z,12.39
2022-09-22T01:48:18.972Z,12.32
2022-09-22T01:50:59.934Z,12.43
2022-09-22T01:53:31.861Z,12.14
2022-09-22T01:56:04.729Z,12.09
2022-09-22T01:58:36.708Z,12.40
2022-09-22T02:01:14.844Z,12.18
2022-09-22T02:03:57.073Z,12.18
2022-09-22T02:06:31.876Z,12.15
2022-09-22T02:09:07.260Z,12.26
2022-09-22T02:11:36.772Z,12.26
2022-09-22T02:14:07.853Z,12.15
2022-09-22T02:16:37.699Z,12.04
2022-09-22T02:19:18.735Z,12.00
2022-09-22T02:21:49.107Z,12.00
2022-09-22T02:24:30.173Z,11.69
2022-09-22T02:27:01.787Z,11.94
2022-09-22T02:29:33.651Z,11.79
2022-09-22T02:32:05.814Z,12.10
2022-09-22T02:34:35.156Z,12.10
2022-09-22T02:37:25.168Z,12.18
2022-09-22T02:40:24.128Z,12.18
2022-09-22T02:42:58.787Z,12.03
2022-09-22T02:45:31.217Z,12.03
2022-09-22T02:48:09.259Z,12.02
2022-09-22T02:50:39.443Z,12.02
2022-09-22T02:53:14.407Z,11.61
2022-09-22T02:55:45.587Z,11.66
2022-09-22T02:58:16.608Z,11.99
2022-09-22T03:00:46.324Z,11.99
2022-09-22T03:03:15.369Z,12.01
2022-09-22T03:05:44.485Z,12.07
2022-09-22T03:08:13.702Z,12.00
2022-09-22T03:10:42.731Z,12.13
2022-09-22T03:13:16.892Z,11.94
2022-09-22T03:15:42.623Z,12.03
2022-09-22T03:18:12.172Z,12.03
2022-09-22T03:20:41.421Z,11.88
2022-09-22T03:23:10.546Z,11.78
2022-09-22T03:25:39.680Z,11.85
2022-09-22T03:28:08.930Z,11.82
2022-09-22T03:30:39.586Z,11.82
2022-09-22T03:33:08.753Z,11.87
2022-09-22T03:35:37.727Z,11.84
2022-09-22T03:38:06.929Z,11.93
2022-09-22T03:40:36.034Z,11.91
2022-09-22T03:43:05.055Z,11.75
2022-09-22T03:45:34.043Z,11.79
2022-09-22T03:48:03.479Z,11.72
2022-09-22T03:50:32.513Z,11.68
2022-09-22T03:53:01.546Z,11.51
2022-09-22T03:55:30.555Z,11.84
2022-09-22T03:57:59.969Z,12.32
2022-09-22T04:00:29.161Z,12.79
2022-09-22T04:02:59.699Z,13.34
2022-09-22T04:05:28.657Z,13.75
2022-09-22T04:07:57.639Z,14.43
2022-09-22T04:10:27.259Z,15.13
2022-09-22T04:12:56.299Z,15.45
2022-09-22T04:15:25.270Z,15.74
2022-09-22T04:17:54.282Z,16.22
2022-09-22T04:20:23.370Z,16.87
2022-09-22T04:22:52.315Z,16.84
2022-09-22T04:25:21.302Z,17.83
2022-09-22T04:27:50.552Z,17.83
2022-09-22T04:30:19.818Z,16.66
2022-09-22T04:32:48.794Z,17.18
2022-09-22T04:35:17.927Z,17.63
2022-09-22T04:37:46.955Z,17.63
2022-09-22T04:40:16.073Z,17.94
2022-09-22T04:42:52.370Z,18.42
2022-09-22T04:45:21.662Z,18.35
2022-09-22T04:47:52.838Z,19.01
2022-09-22T04:50:24.274Z,19.01
2022-09-22T04:52:55.266Z,19.44
2022-09-22T04:55:26.257Z,20.46
2022-09-22T04:57:57.324Z,20.71
2022-09-22T05:00:28.807Z,20.90
2022-09-22T05:02:58.590Z,20.99
2022-09-22T05:05:27.942Z,21.47
2022-09-22T05:07:56.902Z,22.12
2022-09-22T05:10:27.018Z,23.17
2022-09-22T05:12:55.984Z,23.16
2022-09-22T05:15:25.842Z,22.20
2022-09-22T05:17:56.026Z,22.20
2022-09-22T05:20:25.035Z,23.49
2022-09-22T05:22:55.213Z,22.78
2022-09-22T05:25:24.483Z,22.80
2022-09-22T05:27:57.225Z,23.43
2022-09-22T05:30:27.908Z,23.11
2022-09-22T05:32:56.940Z,23.11
2022-09-22T05:35:27.132Z,23.37
2022-09-22T05:37:56.154Z,23.12
2022-09-22T05:40:26.548Z,22.94
2022-09-22T05:42:56.066Z,22.94
2022-09-22T05:45:25.162Z,23.02
2022-09-22T05:47:54.342Z,23.49
2022-09-22T05:50:26.539Z,22.89
2022-09-22T05:53:04.270Z,22.80
2022-09-22T05:55:33.650Z,22.57
2022-09-22T05:58:02.935Z,22.57
2022-09-22T06:00:32.531Z,23.46
2022-09-22T06:03:01.808Z,23.28
2022-09-22T06:05:30.992Z,23.41
2022-09-22T06:08:03.723Z,23.72
2022-09-22T06:10:37.646Z,24.63
2022-09-22T06:13:11.430Z,24.59
2022-09-22T06:15:42.089Z,25.27
2022-09-22T06:18:15.386Z,25.63
2022-09-22T06:20:45.193Z,25.43
2022-09-22T06:23:15.622Z,24.81
2022-09-22T06:25:44.728Z,24.81
2022-09-22T06:28:15.042Z,26.59
2022-09-22T06:30:44.367Z,24.61
2022-09-22T06:33:13.522Z,24.61
2022-09-22T06:35:46.456Z,24.86
2022-09-22T06:38:16.388Z,25.72
2022-09-22T06:40:45.930Z,25.72
2022-09-22T06:43:18.809Z,26.70
2022-09-22T06:45:47.884Z,26.70
2022-09-22T06:48:17.716Z,25.96
2022-09-22T06:50:51.939Z,25.75
2022-09-22T06:53:24.787Z,25.04
2022-09-22T06:55:53.857Z,25.04
2022-09-22T06:58:23.574Z,24.88
2022-09-22T07:00:53.995Z,25.76
2022-09-22T07:03:26.879Z,26.55
2022-09-22T07:06:04.356Z,27.44
2022-09-22T07:08:35.749Z,27.87
2022-09-22T07:11:08.910Z,27.38
2022-09-22T07:13:40.755Z,26.40
2022-09-22T07:16:12.461Z,27.56
2022-09-22T07:18:42.901Z,27.56
2022-09-22T07:21:18.346Z,28.36
2022-09-22T07:23:49.546Z,27.76
2022-09-22T07:26:22.059Z,27.76
2022-09-22T07:28:54.244Z,28.17
2022-09-22T07:31:28.410Z,27.31
2022-09-22T07:33:55.508Z,28.42
2022-09-22T07:36:26.415Z,28.58
2022-09-22T07:38:57.726Z,26.83
2022-09-22T07:41:29.131Z,26.83
2022-09-22T07:44:17.974Z,26.99
2022-09-22T07:46:47.809Z,27.03
2022-09-22T07:49:18.583Z,27.03
2022-09-22T07:51:47.854Z,26.90
2022-09-22T07:54:17.548Z,26.51
2022-09-22T07:56:47.023Z,27.69
2022-09-22T07:59:18.164Z,28.72
2022-09-22T08:01:50.967Z,28.23
2022-09-22T08:04:24.150Z,28.23
2022-09-22T08:06:56.288Z,28.63
2022-09-22T08:09:26.544Z,27.84
2022-09-22T08:11:56.575Z,25.51
2022-09-22T08:14:26.210Z,25.51
2022-09-22T08:16:55.456Z,26.48
2022-09-22T08:19:25.051Z,26.75
2022-09-22T08:21:55.154Z,28.28
2022-09-22T08:24:24.850Z,26.23
2022-09-22T08:26:56.367Z,25.40
2022-09-22T08:29:26.912Z,26.20
2022-09-22T08:31:56.835Z,26.20
2022-09-22T08:34:25.880Z,23.84
2022-09-22T08:36:56.105Z,23.84
2022-09-22T08:39:25.157Z,22.87
2022-09-22T08:42:09.805Z,25.51
2022-09-22T08:44:41.818Z,26.07
2022-09-22T08:47:13.689Z,24.93
2022-09-22T08:50:03.214Z,24.16
2022-09-22T08:52:53.886Z,24.16
2022-09-22T08:55:25.528Z,23.65
2022-09-22T08:58:20.396Z,22.83
2022-09-22T09:00:52.748Z,21.22
2022-09-22T09:03:33.427Z,22.99
2022-09-22T09:06:20.949Z,25.17
2022-09-22T09:09:05.385Z,25.17
2022-09-22T09:11:58.255Z,26.30
2022-09-22T09:14:39.217Z,26.45
2022-09-22T09:17:20.350Z,26.45
2022-09-22T09:19:52.287Z,27.51
2022-09-22T09:22:25.497Z,28.06
2022-09-22T09:27:37.359Z,26.89
2022-09-22T09:30:17.416Z,27.40
2022-09-22T09:32:56.632Z,27.40
2022-09-22T09:35:28.892Z,27.37
2022-09-22T09:38:01.155Z,28.30
2022-09-22T09:40:30.452Z,27.52
2022-09-22T09:43:03.670Z,27.52
2022-09-22T09:45:51.606Z,27.07
2022-09-22T09:48:35.516Z,27.07
2022-09-22T09:51:05.925Z,27.61
2022-09-22T09:53:41.384Z,27.61
2022-09-22T09:56:16.470Z,26.55
2022-09-22T09:59:15.309Z,26.32
2022-09-22T10:01:47.540Z,26.17
2022-09-22T10:04:25.695Z,26.17
2022-09-22T10:06:55.276Z,25.49
2022-09-22T10:09:30.220Z,25.21
2022-09-22T10:12:04.122Z,24.42
2022-09-22T10:14:36.524Z,24.42
2022-09-22T10:17:07.017Z,23.76
2022-09-22T10:19:36.133Z,23.04
2022-09-22T10:22:25.324Z,22.79
2022-09-22T10:24:59.940Z,23.61
2022-09-22T10:27:31.737Z,23.02
2022-09-22T10:30:15.505Z,22.51
2022-09-22T10:32:48.371Z,23.02
2022-09-22T10:35:33.597Z,23.00
2022-09-22T10:38:09.893Z,23.30
2022-09-22T10:40:41.997Z,22.81
2022-09-22T10:43:29.902Z,22.81
2022-09-22T10:46:18.598Z,22.79
2022-09-22T10:48:59.146Z,22.79
2022-09-22T10:51:49.284Z,22.68
2022-09-22T10:54:40.970Z,22.30
2022-09-22T10:57:15.538Z,22.30
2022-09-22T10:59:53.391Z,22.85
2022-09-22T11:02:46.788Z,22.85
2022-09-22T11:05:59.621Z,22.64
2022-09-22T11:08:48.656Z,22.77
2022-09-22T11:14:25.428Z,22.53
2022-09-22T11:17:00.091Z,21.91
2022-09-22T11:19:34.740Z,21.91
2022-09-22T11:22:15.424Z,22.70
2022-09-22T11:25:13.114Z,22.24
2022-09-22T11:27:53.830Z,22.11
2022-09-22T11:30:24.503Z,22.31
2022-09-22T11:33:17.161Z,22.31
2022-09-22T11:36:10.519Z,22.31
2022-09-22T11:38:51.266Z,22.42
2022-09-22T11:41:41.917Z,22.31
2022-09-22T11:44:25.968Z,23.18
2022-09-22T11:47:18.990Z,23.05
2022-09-22T11:49:56.445Z,23.23
2022-09-22T11:52:34.082Z,22.26
2022-09-22T11:55:23.672Z,22.26
2022-09-22T11:57:55.668Z,22.40
2022-09-22T12:00:25.194Z,22.73
2022-09-22T12:03:02.083Z,22.73
2022-09-22T12:05:41.944Z,22.74
2022-09-22T12:08:16.645Z,22.75
2022-09-22T12:10:47.761Z,23.31
2022-09-22T12:13:20.729Z,22.62
2022-09-22T12:19:08.071Z,22.66
2022-09-22T12:22:05.647Z,22.21
2022-09-22T12:24:35.021Z,21.64
2022-09-22T12:27:26.737Z,21.64
2022-09-22T12:30:04.493Z,22.18
2022-09-22T12:32:42.188Z,21.69
2022-09-22T12:35:25.280Z,21.94
2022-09-22T12:37:55.889Z,21.76
2022-09-22T12:40:35.458Z,21.76
2022-09-22T12:43:05.307Z,21.81
2022-09-22T12:45:39.363Z,21.86
2022-09-22T12:48:23.589Z,21.45
2022-09-22T12:50:53.781Z,21.36
2022-09-22T12:53:30.366Z,21.43
2022-09-22T12:55:59.867Z,21.49
2022-09-22T12:58:34.484Z,21.34
2022-09-22T13:01:32.902Z,21.56
2022-09-22T13:04:08.066Z,21.27
2022-09-22T13:06:46.182Z,21.26
2022-09-22T13:09:26.043Z,20.81
2022-09-22T13:12:17.984Z,20.86
2022-09-22T13:15:07.989Z,20.76
2022-09-22T13:17:45.965Z,20.73
2022-09-22T13:20:20.637Z,20.91
2022-09-22T13:22:51.277Z,20.91
2022-09-22T13:25:26.767Z,21.03
2022-09-22T13:28:11.282Z,21.00
2022-09-22T13:30:42.441Z,21.00
2022-09-22T13:33:19.963Z,21.19
2022-09-22T13:35:50.666Z,20.90
2022-09-22T13:38:19.910Z,20.15
2022-09-22T13:40:51.080Z,20.15
2022-09-22T13:43:25.858Z,20.59
2022-09-22T13:45:56.048Z,20.08
2022-09-22T13:48:26.655Z,20.08
2022-09-22T13:50:58.606Z,20.16
2022-09-22T13:53:27.775Z,20.19
2022-09-22T13:55:57.985Z,20.19
2022-09-22T13:58:41.962Z,20.15
2022-09-22T14:01:19.878Z,20.23
2022-09-22T14:03:50.316Z,20.12
2022-09-22T14:06:28.147Z,20.41
2022-09-22T14:08:58.429Z,20.41
2022-09-22T14:11:34.161Z,19.84
2022-09-22T14:14:04.505Z,20.16
2022-09-22T14:17:03.709Z,20.16
2022-09-22T14:19:44.280Z,20.08
2022-09-22T14:22:21.566Z,19.89
2022-09-22T14:24:59.297Z,19.89
2022-09-22T14:27:35.334Z,19.92
2022-09-22T14:30:05.969Z,19.54
2022-09-22T14:32:47.105Z,19.82
2022-09-22T14:35:37.482Z,19.85
2022-09-22T14:38:17.679Z,19.42
2022-09-22T14:40:43.722Z,19.72
2022-09-22T14:43:40.537Z,19.63
2022-09-22T14:46:35.042Z,19.63
2022-09-22T14:49:40.572Z,19.41
2022-09-22T14:52:30.619Z,19.65
2022-09-22T14:55:03.375Z,19.41
2022-09-22T14:57:32.341Z,19.63
2022-09-22T15:00:20.006Z,19.03
2022-09-22T15:02:51.836Z,18.73
2022-09-22T15:05:29.976Z,18.73
2022-09-22T15:07:58.564Z,19.00
2022-09-22T15:10:30.759Z,19.00
2022-09-22T15:13:19.860Z,19.23
2022-09-22T15:15:50.635Z,18.72
2022-09-22T15:18:22.485Z,18.72
2022-09-22T15:21:06.763Z,18.50
2022-09-22T15:23:44.989Z,18.50
2022-09-22T15:26:25.354Z,18.79
2022-09-22T15:28:56.470Z,18.60
2022-09-22T15:31:29.986Z,18.60
2022-09-22T15:34:01.676Z,18.59
2022-09-22T15:36:33.505Z,18.67
2022-09-22T15:39:07.584Z,18.67
2022-09-22T15:41:40.439Z,18.63
2022-09-22T15:44:10.294Z,18.63
2022-09-22T15:46:40.113Z,18.44
2022-09-22T15:49:18.435Z,18.44
2022-09-22T15:51:49.328Z,18.33
2022-09-22T15:54:21.638Z,18.33
2022-09-22T15:56:52.855Z,18.69
2022-09-22T15:59:26.199Z,18.62
2022-09-22T16:01:59.630Z,18.62
2022-09-22T16:04:31.054Z,18.83
2022-09-22T16:07:03.345Z,18.55
2022-09-22T16:09:35.687Z,18.55
2022-09-22T16:12:06.409Z,18.57
2022-09-22T16:14:36.835Z,18.35
2022-09-22T16:17:07.472Z,18.55
2022-09-22T16:19:36.909Z,18.47
2022-09-22T16:22:06.110Z,18.56
2022-09-22T16:24:35.164Z,18.56
2022-09-22T16:27:05.803Z,18.57
2022-09-22T16:29:36.655Z,18.56
2022-09-22T16:32:06.340Z,18.38
2022-09-22T16:34:36.181Z,18.34
2022-09-22T16:37:05.672Z,18.40
2022-09-22T16:39:34.830Z,18.58
2022-09-22T16:42:03.860Z,18.18
2022-09-22T16:44:32.890Z,18.18
2022-09-22T16:47:02.392Z,18.29
2022-09-22T16:49:34.365Z,18.19
2022-09-22T16:52:03.739Z,18.28
2022-09-22T16:54:34.810Z,18.27
2022-09-22T16:57:03.772Z,18.20
2022-09-22T16:59:33.554Z,18.20
2022-09-22T17:02:02.645Z,18.27
2022-09-22T17:04:32.635Z,18.04
2022-09-22T17:07:02.137Z,18.34
2022-09-22T17:09:32.498Z,18.30
2022-09-22T17:12:02.636Z,18.41
2022-09-22T17:14:32.784Z,18.07
2022-09-22T17:17:03.474Z,18.07
2022-09-22T17:19:32.595Z,18.39
2022-09-22T17:22:01.676Z,18.45
2022-09-22T17:24:30.704Z,18.43
2022-09-22T17:27:00.827Z,18.56
2022-09-22T17:29:32.987Z,18.59
2022-09-22T17:32:04.717Z,18.62
2022-09-22T17:34:35.691Z,18.58
2022-09-22T17:37:05.158Z,18.56
2022-09-22T17:39:34.312Z,18.51
2022-09-22T17:42:04.744Z,18.51
2022-09-22T17:44:35.237Z,18.35
2022-09-22T17:47:22.285Z,18.42
2022-09-22T17:50:09.586Z,18.46
2022-09-22T17:52:57.649Z,18.20
2022-09-22T17:55:26.767Z,18.33
2022-09-22T17:57:56.724Z,18.33
2022-09-22T18:00:26.452Z,18.26
2022-09-22T18:02:56.943Z,18.26
2022-09-22T18:05:27.455Z,18.15
2022-09-22T18:07:58.743Z,18.16
2022-09-22T18:10:30.493Z,18.26
2022-09-22T18:13:00.563Z,17.97
2022-09-22T18:15:29.719Z,18.01
2022-09-22T18:17:58.811Z,17.91
2022-09-22T18:20:27.969Z,18.15
2022-09-22T18:22:58.572Z,18.08
2022-09-22T18:25:28.659Z,17.94
2022-09-22T18:27:58.262Z,18.21
2022-09-22T18:30:28.514Z,18.21
2022-09-22T18:32:57.617Z,18.04
2022-09-22T18:35:28.318Z,17.63
2022-09-22T18:37:57.291Z,17.63
2022-09-22T18:40:28.005Z,17.99
2022-09-22T18:42:57.057Z,17.89
2022-09-22T18:45:26.057Z,17.82
2022-09-22T18:47:56.742Z,17.82
2022-09-22T18:50:25.701Z,17.34
2022-09-22T18:52:56.236Z,17.44
2022-09-22T18:55:25.208Z,17.36
2022-09-22T18:57:54.261Z,17.32
2022-09-22T19:00:24.874Z,17.32
2022-09-22T19:02:53.915Z,17.32
2022-09-22T19:05:24.021Z,17.12
2022-09-22T19:07:53.765Z,17.23
2022-09-22T19:10:23.604Z,17.13
2022-09-22T19:12:52.788Z,17.28
2022-09-22T19:15:23.254Z,17.19
2022-09-22T19:17:52.404Z,17.16
2022-09-22T19:20:24.063Z,17.11
2022-09-22T19:22:53.974Z,17.11
2022-09-22T19:25:23.655Z,17.21
2022-09-22T19:27:53.502Z,17.09
2022-09-22T19:30:26.609Z,17.28
2022-09-22T19:32:54.700Z,17.14
2022-09-22T19:35:23.757Z,16.99
2022-09-22T19:37:53.317Z,17.01
2022-09-22T19:40:25.219Z,17.11
2022-09-22T19:42:55.383Z,17.27
2022-09-22T19:45:26.246Z,16.77
2022-09-22T19:47:58.581Z,17.14
2022-09-22T19:50:27.935Z,17.49
2022-09-22T19:52:57.023Z,17.37
2022-09-22T19:55:26.519Z,17.40
2022-09-22T19:57:56.031Z,17.64
2022-09-22T20:00:28.746Z,17.46
2022-09-22T20:03:01.619Z,17.54
2022-09-22T20:05:37.220Z,17.54
2022-09-22T20:08:08.682Z,17.58
2022-09-22T20:10:37.613Z,17.55
2022-09-22T20:13:08.229Z,17.87
2022-09-22T20:15:38.855Z,17.87
2022-09-22T20:18:07.888Z,17.65
2022-09-22T20:20:37.717Z,17.26
2022-09-22T20:23:07.218Z,17.26
2022-09-22T20:25:36.369Z,17.02
2022-09-22T20:28:05.581Z,17.16
2022-09-22T20:30:34.605Z,16.96
2022-09-22T20:33:03.744Z,16.96
2022-09-22T20:35:33.024Z,17.14
2022-09-22T20:38:02.093Z,17.29
2022-09-22T20:40:31.229Z,17.19
2022-09-22T20:43:00.206Z,17.38
2022-09-22T20:45:29.520Z,17.39
2022-09-22T20:47:58.604Z,17.41
2022-09-22T20:50:27.564Z,17.33
2022-09-22T20:52:56.755Z,17.36
2022-09-22T20:55:25.741Z,17.31
2022-09-22T20:57:54.898Z,17.30
2022-09-22T21:00:24.146Z,17.27
2022-09-22T21:02:53.743Z,17.27
2022-09-22T21:05:22.924Z,17.48
2022-09-22T21:07:53.570Z,17.44
2022-09-22T21:10:37.666Z,17.44
2022-09-22T21:13:06.928Z,17.24
2022-09-22T21:15:36.337Z,16.96
2022-09-22T21:18:05.686Z,16.79
2022-09-22T21:20:34.695Z,16.89
2022-09-22T21:23:04.474Z,17.12
2022-09-22T21:25:33.812Z,17.01
2022-09-22T21:28:03.231Z,17.13
2022-09-22T21:30:33.284Z,16.87
2022-09-22T21:33:03.830Z,16.68
2022-09-22T21:35:33.018Z,16.68
2022-09-22T21:38:02.680Z,16.95
2022-09-22T21:40:31.748Z,16.95
2022-09-22T21:43:01.674Z,17.09
2022-09-22T21:45:30.755Z,17.09
2022-09-22T21:47:59.955Z,16.91
2022-09-22T21:50:29.109Z,17.18
2022-09-22T21:52:58.919Z,17.18
2022-09-22T21:55:28.135Z,16.91
2022-09-22T21:57:57.361Z,16.91
2022-09-22T22:00:48.280Z,16.67
2022-09-22T22:03:14.808Z,16.78
2022-09-22T22:05:43.851Z,16.48
2022-09-22T22:08:12.869Z,16.65
2022-09-22T22:10:41.892Z,16.65
2022-09-22T22:13:11.571Z,16.21
2022-09-22T22:15:41.141Z,16.60
2022-09-22T22:18:10.259Z,16.50
2022-09-22T22:20:39.288Z,16.36
2022-09-22T22:23:09.537Z,16.48
2022-09-22T22:25:39.131Z,16.11
2022-09-22T22:28:08.489Z,16.00
2022-09-22T22:30:41.211Z,16.09
2022-09-22T22:33:12.020Z,16.36
2022-09-22T22:35:42.472Z,16.27
2022-09-22T22:38:11.445Z,15.91
2022-09-22T22:40:40.531Z,16.16
2022-09-22T22:43:09.843Z,15.94
2022-09-22T22:45:38.817Z,15.83
2022-09-22T22:48:07.794Z,16.26
2022-09-22T22:50:39.226Z,15.68
2022-09-22T22:53:12.738Z,15.77
2022-09-22T22:55:44.065Z,16.18
2022-09-22T22:58:13.109Z,16.18
2022-09-22T23:00:42.110Z,16.07
2022-09-22T23:03:11.321Z,16.07
2022-09-22T23:05:43.063Z,16.19
2022-09-22T23:08:12.427Z,16.11
2022-09-22T23:10:41.377Z,15.97
2022-09-22T23:13:11.107Z,15.97
2022-09-22T23:15:40.141Z,16.06
2022-09-22T23:18:09.236Z,16.00
2022-09-22T23:20:38.258Z,15.94
2022-09-22T23:23:07.416Z,15.94
2022-09-22T23:25:37.678Z,15.79
2022-09-22T23:28:07.609Z,15.80
2022-09-22T23:30:36.611Z,15.80
2022-09-22T23:33:06.802Z,15.82
2022-09-22T23:35:35.937Z,15.78
2022-09-22T23:38:08.732Z,15.70
2022-09-22T23:40:35.664Z,15.29
2022-09-22T23:43:04.905Z,15.11
2022-09-22T23:45:33.963Z,15.39
2022-09-22T23:48:03.250Z,15.22
2022-09-22T23:50:32.283Z,15.34
2022-09-22T23:53:01.303Z,15.45
2022-09-22T23:55:30.280Z,15.45
2022-09-22T23:57:59.237Z,15.38
